createdAt,value
2022-09-23T00:00:18.802Z,0
2022-09-23T00:10:18.908Z,0
2022-09-23T00:20:19.591Z,0
2022-09-23T00:30:19.718Z,0
2022-09-23T00:40:20.445Z,0
2022-09-23T00:50:21.012Z,0
2022-09-23T01:00:21.865Z,0
2022-09-23T01:20:22.641Z,0
2022-09-23T01:30:23.309Z,0
2022-09-23T01:50:24.550Z,0
2022-09-23T02:10:24.795Z,0
2022-09-23T02:30:25.776Z,0
2022-09-23T02:40:32.890Z,0
2022-09-23T02:50:25.966Z,0
2022-09-23T03:00:26.099Z,0
2022-09-23T03:10:33.280Z,0
2022-09-23T03:30:27.259Z,0
2022-09-23T03:50:28.139Z,0
2022-09-23T04:20:30.869Z,0
2022-09-23T04:30:31.468Z,0
2022-09-23T04:40:32.451Z,0
2022-09-23T04:50:33.140Z,0
2022-09-23T05:00:34.098Z,0
2022-09-23T05:10:34.339Z,0
2022-09-23T05:20:34.820Z,0
2022-09-23T05:30:35.374Z,0
2022-09-23T05:40:36.197Z,0
2022-09-23T05:50:36.715Z,0
2022-09-23T06:00:37.347Z,0
2022-09-23T06:10:37.759Z,0
2022-09-23T06:20:38.027Z,0
2022-09-23T06:30:38.143Z,0
2022-09-23T07:00:40.020Z,0
2022-09-23T07:50:42.904Z,0
2022-09-23T08:00:43.303Z,0
2022-09-23T09:00:48.964Z,0
2022-09-23T09:30:51.603Z,0
2022-09-23T09:40:52.056Z,0
2022-09-23T10:00:53.153Z,44
2022-09-23T10:11:00.425Z,61
2022-09-23T10:20:53.823Z,75
2022-09-23T10:30:54.616Z,81
2022-09-23T10:40:55.627Z,84
2022-09-23T10:50:58.207Z,90
2022-09-23T11:10:57.820Z,94
2022-09-23T11:20:58.230Z,93
2022-09-23T11:40:59.875Z,94
2022-09-23T12:01:01.489Z,90
2022-09-23T12:11:01.361Z,84
2022-09-23T12:21:01.474Z,88
2022-09-23T12:31:09.081Z,85
2022-09-23T12:41:02.213Z,85
2022-09-23T12:51:09.875Z,85
2022-09-23T13:01:03.675Z,84
2022-09-23T13:11:03.748Z,86
2022-09-23T13:21:04.043Z,86
2022-09-23T13:31:11.207Z,88
2022-09-23T13:41:05.221Z,89
2022-09-23T13:51:05.484Z,91
2022-09-23T14:11:18.780Z,93
2022-09-23T14:21:19.196Z,93
2022-09-23T14:31:20.038Z,94
2022-09-23T14:41:27.681Z,92
2022-09-23T14:51:20.829Z,92
2022-09-23T15:01:21.455Z,96
2022-09-23T15:11:22.483Z,97
2022-09-23T15:21:23.340Z,97
2022-09-23T15:31:23.829Z,99
2022-09-23T15:41:24.624Z,99
2022-09-23T16:01:25.596Z,100
2022-09-23T16:11:25.940Z,100
2022-09-23T16:21:26.960Z,100
2022-09-23T16:31:27.413Z,100
2022-09-23T16:51:28.016Z,85
2022-09-23T17:11:36.843Z,0
2022-09-23T17:21:29.997Z,0
2022-09-23T17:31:30.481Z,0
2022-09-23T17:41:30.801Z,0
2022-09-23T17:51:38.747Z,0
2022-09-23T18:01:32.055Z,0
2022-09-23T18:11:32.509Z,0
2022-09-23T18:21:33.198Z,0
2022-09-23T18:31:34.233Z,0
2022-09-23T18:41:34.596Z,0
2022-09-23T18:51:35.654Z,0
2022-09-23T19:01:36.535Z,0
2022-09-23T19:11:36.538Z,0
2022-09-23T19:21:37.153Z,0
2022-09-23T19:31:37.506Z,0
2022-09-23T19:41:38.380Z,0
2022-09-23T20:01:39.149Z,0
2022-09-23T20:11:39.629Z,0
2022-09-23T20:21:40.377Z,0
2022-09-23T20:31:41.009Z,0
2022-09-23T20:41:41.593Z,0
2022-09-23T20:51:41.638Z,0
2022-09-23T21:01:41.947Z,0
2022-09-23T21:11:42.691Z,0
2022-09-23T21:31:44.212Z,0
2022-09-23T21:41:44.998Z,0
2022-09-23T21:51:45.729Z,0
2022-09-23T22:01:48.325Z,0
2022-09-23T22:11:46.904Z,0
2022-09-23T22:31:48.296Z,0
2022-09-23T22:51:49.719Z,0
2022-09-23T23:01:50.572Z,0
2022-09-23T23:11:50.902Z,0
2022-09-23T23:21:51.459Z,0
2022-09-23T23:31:58.561Z,0
2022-09-23T23:41:52.477Z,0
2022-09-23T23:51:53.334Z,0
